createdAt,value
2018-10-05T00:01:08.844Z,11.41
2018-10-05T00:03:37.327Z,11.44
2018-10-05T00:06:07.812Z,11.49
2018-10-05T00:08:36.676Z,11.36
2018-10-05T00:11:07.764Z,11.22
2018-10-05T00:13:36.808Z,11.77
2018-10-05T00:16:08.828Z,11.82
2018-10-05T00:18:39.209Z,11.88
2018-10-05T00:21:08.828Z,11.68
2018-10-05T00:23:39.016Z,12.04
2018-10-05T00:26:07.977Z,11.51
2018-10-05T00:28:38.507Z,11.21
2018-10-05T00:31:07.209Z,11.12
2018-10-05T00:33:37.604Z,10.99
2018-10-05T00:36:07.312Z,10.97
2018-10-05T00:38:37.196Z,10.91
2018-10-05T00:41:07.753Z,10.80
2018-10-05T00:43:36.818Z,10.69
2018-10-05T00:46:05.825Z,10.83
2018-10-05T00:48:35.389Z,10.76
2018-10-05T00:51:05.495Z,10.80
2018-10-05T00:53:35.176Z,11.11
2018-10-05T00:56:04.510Z,10.70
2018-10-05T00:58:35.379Z,10.44
2018-10-05T01:01:04.289Z,10.93
2018-10-05T01:03:33.076Z,11.04
2018-10-05T01:06:03.832Z,11.13
2018-10-05T01:08:34.892Z,11.41
2018-10-05T01:11:04.443Z,11.50
2018-10-05T01:13:33.556Z,11.48
2018-10-05T01:16:02.592Z,11.71
2018-10-05T01:18:32.666Z,11.82
2018-10-05T01:21:04.228Z,12.05
2018-10-05T01:23:34.028Z,11.99
2018-10-05T01:26:03.980Z,11.68
2018-10-05T01:28:33.343Z,11.42
2018-10-05T01:31:03.023Z,11.19
2018-10-05T01:33:32.119Z,11.64
2018-10-05T01:36:02.303Z,11.96
2018-10-05T01:38:33.136Z,11.94
2018-10-05T01:41:01.639Z,12.26
2018-10-05T01:43:33.451Z,12.03
2018-10-05T01:46:04.515Z,12.28
2018-10-05T01:48:35.094Z,12.46
2018-10-05T01:51:04.996Z,12.81
2018-10-05T01:53:34.421Z,12.51
2018-10-05T01:56:04.572Z,12.21
2018-10-05T01:58:35.643Z,12.17
2018-10-05T02:01:05.332Z,11.97
2018-10-05T02:03:34.721Z,12.08
2018-10-05T02:06:03.485Z,12.26
2018-10-05T02:08:34.399Z,12.20
2018-10-05T02:11:03.020Z,11.54
2018-10-05T02:13:32.841Z,11.51
2018-10-05T02:16:03.988Z,11.34
2018-10-05T02:18:33.307Z,11.46
2018-10-05T02:21:03.156Z,7.73
2018-10-05T02:23:32.235Z,11.45
2018-10-05T02:26:01.967Z,11.54
2018-10-05T02:28:35.187Z,11.64
2018-10-05T02:31:06.048Z,11.57
2018-10-05T02:33:35.283Z,11.36
2018-10-05T02:36:05.087Z,10.95
2018-10-05T02:38:35.085Z,10.96
2018-10-05T02:41:05.066Z,10.71
2018-10-05T02:43:35.769Z,11.01
2018-10-05T02:46:04.840Z,11.41
2018-10-05T02:48:34.532Z,11.36
2018-10-05T02:51:05.913Z,11.49
2018-10-05T02:53:34.714Z,11.63
2018-10-05T02:56:04.683Z,11.36
2018-10-05T02:58:35.992Z,11.27
2018-10-05T03:01:15.592Z,11.58
2018-10-05T03:03:45.705Z,11.62
2018-10-05T03:06:15.402Z,11.16
2018-10-05T03:08:44.545Z,11.25
2018-10-05T03:11:14.817Z,11.23
2018-10-05T03:13:46.079Z,10.96
2018-10-05T03:16:16.135Z,10.58
2018-10-05T03:18:45.037Z,10.48
2018-10-05T03:21:14.284Z,10.09
2018-10-05T03:23:45.725Z,9.93
2018-10-05T03:26:15.459Z,9.79
2018-10-05T03:28:44.583Z,9.76
2018-10-05T03:31:14.605Z,9.64
2018-10-05T03:33:44.943Z,9.44
2018-10-05T03:36:15.766Z,9.49
2018-10-05T03:38:46.539Z,9.58
2018-10-05T03:41:16.674Z,9.74
2018-10-05T03:43:47.446Z,9.99
2018-10-05T03:46:18.768Z,10.64
2018-10-05T03:48:49.081Z,11.31
2018-10-05T03:51:19.019Z,11.17
2018-10-05T03:53:47.927Z,11.33
2018-10-05T03:56:17.218Z,11.46
2018-10-05T03:58:46.534Z,11.44
2018-10-05T04:01:16.609Z,10.57
2018-10-05T04:03:47.113Z,10.62
2018-10-05T04:06:17.198Z,10.65
2018-10-05T04:08:46.011Z,10.65
2018-10-05T04:11:16.376Z,11.25
2018-10-05T04:13:46.373Z,10.96
2018-10-05T04:16:15.636Z,10.74
2018-10-05T04:18:44.708Z,10.65
2018-10-05T04:21:15.818Z,10.71
2018-10-05T04:23:46.606Z,11.01
2018-10-05T04:26:31.697Z,11.27
2018-10-05T04:29:01.980Z,11.11
2018-10-05T04:31:31.390Z,11.07
2018-10-05T04:34:00.576Z,11.31
2018-10-05T04:36:29.164Z,11.52
2018-10-05T04:38:58.187Z,11.48
2018-10-05T04:41:28.044Z,11.26
2018-10-05T04:43:59.274Z,11.33
2018-10-05T04:46:29.735Z,11.18
2018-10-05T04:48:58.832Z,10.88
2018-10-05T04:51:28.308Z,10.38
2018-10-05T04:53:57.989Z,10.56
2018-10-05T04:56:27.533Z,10.20
2018-10-05T04:58:56.651Z,10.41
2018-10-05T05:01:26.152Z,10.51
2018-10-05T05:03:56.724Z,10.76
2018-10-05T05:06:26.899Z,10.81
2018-10-05T05:08:55.892Z,10.89
2018-10-05T05:11:25.395Z,11.00
2018-10-05T05:13:54.600Z,10.51
2018-10-05T05:16:24.912Z,10.24
2018-10-05T05:18:55.264Z,9.89
2018-10-05T05:21:25.112Z,7.62
2018-10-05T05:23:53.703Z,10.02
2018-10-05T05:26:23.454Z,10.12
2018-10-05T05:28:54.194Z,9.96
2018-10-05T05:31:24.181Z,9.72
2018-10-05T05:33:53.420Z,9.71
2018-10-05T05:36:23.910Z,9.74
2018-10-05T05:38:52.808Z,9.44
2018-10-05T05:41:22.093Z,9.21
2018-10-05T05:43:51.103Z,9.38
2018-10-05T05:46:20.846Z,9.28
2018-10-05T05:48:50.664Z,9.17
2018-10-05T05:51:20.020Z,8.99
2018-10-05T05:53:50.960Z,8.99
2018-10-05T05:56:19.646Z,9.17
2018-10-05T05:58:48.968Z,9.17
2018-10-05T06:01:18.436Z,9.18
2018-10-05T06:03:47.852Z,9.45
2018-10-05T06:06:19.317Z,9.45
2018-10-05T06:08:51.968Z,9.47
2018-10-05T06:11:20.506Z,9.71
2018-10-05T06:13:52.326Z,9.92
2018-10-05T06:16:22.420Z,9.86
2018-10-05T06:18:52.644Z,10.06
2018-10-05T06:21:22.093Z,9.96
2018-10-05T06:23:50.578Z,9.98
2018-10-05T06:26:20.193Z,10.19
2018-10-05T06:28:49.862Z,10.20
2018-10-05T06:31:20.771Z,10.39
2018-10-05T06:33:50.834Z,10.70
2018-10-05T06:36:20.372Z,10.89
2018-10-05T06:38:49.440Z,11.17
2018-10-05T06:43:58.545Z,11.79
2018-10-05T06:46:27.439Z,11.75
2018-10-05T06:48:56.136Z,11.92
2018-10-05T06:51:29.264Z,11.70
2018-10-05T06:53:58.536Z,12.56
2018-10-05T06:56:28.571Z,12.67
2018-10-05T06:58:58.211Z,12.90
2018-10-05T07:01:28.362Z,12.91
2018-10-05T07:03:58.043Z,13.03
2018-10-05T07:06:26.606Z,12.59
2018-10-05T07:08:55.285Z,12.17
2018-10-05T07:11:28.463Z,12.90
2018-10-05T07:14:27.904Z,13.49
2018-10-05T07:16:57.656Z,12.97
2018-10-05T07:19:27.255Z,12.95
2018-10-05T07:21:58.066Z,13.51
2018-10-05T07:24:27.655Z,13.82
2018-10-05T07:26:57.133Z,13.20
2018-10-05T07:29:33.246Z,13.27
2018-10-05T07:32:04.831Z,13.16
2018-10-05T07:34:35.545Z,13.34
2018-10-05T07:37:04.470Z,12.29
2018-10-05T07:39:33.579Z,13.76
2018-10-05T07:42:03.572Z,13.81
2018-10-05T07:44:33.753Z,14.13
2018-10-05T07:47:03.269Z,14.19
2018-10-05T07:49:33.612Z,13.78
2018-10-05T07:52:02.993Z,14.07
2018-10-05T07:54:32.833Z,13.27
2018-10-05T07:57:02.880Z,13.14
2018-10-05T07:59:33.076Z,14.05
2018-10-05T08:02:03.623Z,14.16
2018-10-05T08:04:34.079Z,13.31
2018-10-05T08:07:03.402Z,13.14
2018-10-05T08:09:34.235Z,13.53
2018-10-05T08:12:03.716Z,13.89
2018-10-05T08:14:34.139Z,14.59
2018-10-05T08:17:03.325Z,14.72
2018-10-05T08:19:31.981Z,13.96
2018-10-05T08:22:01.079Z,14.77
2018-10-05T08:24:30.040Z,14.94
2018-10-05T08:26:58.818Z,15.20
2018-10-05T08:29:29.921Z,15.15
2018-10-05T08:31:58.967Z,14.40
2018-10-05T08:34:27.912Z,14.26
2018-10-05T08:36:57.436Z,14.09
2018-10-05T08:40:29.035Z,15.05
2018-10-05T08:42:58.436Z,12.77
2018-10-05T08:45:28.694Z,16.15
2018-10-05T08:47:58.593Z,16.07
2018-10-05T08:50:28.768Z,15.51
2018-10-05T08:52:58.021Z,15.79
2018-10-05T08:55:30.838Z,16.01
2018-10-05T08:57:59.626Z,16.60
2018-10-05T09:00:28.796Z,16.75
2018-10-05T09:02:57.977Z,16.70
2018-10-05T09:05:26.514Z,15.90
2018-10-05T09:07:56.383Z,16.48
2018-10-05T09:10:24.920Z,16.32
2018-10-05T09:12:54.850Z,15.83
2018-10-05T09:15:24.357Z,15.63
2018-10-05T09:17:54.071Z,15.49
2018-10-05T09:20:23.385Z,15.55
2018-10-05T09:22:52.062Z,16.06
2018-10-05T09:25:23.073Z,16.18
2018-10-05T09:27:52.327Z,16.17
2018-10-05T09:30:21.617Z,16.65
2018-10-05T09:32:51.378Z,16.65
2018-10-05T09:35:20.455Z,16.41
2018-10-05T09:37:51.387Z,17.01
2018-10-05T09:40:20.716Z,16.59
2018-10-05T09:42:51.416Z,17.07
2018-10-05T09:45:22.101Z,16.89
2018-10-05T09:47:50.981Z,16.66
2018-10-05T09:50:20.738Z,16.42
2018-10-05T09:52:51.081Z,17.34
2018-10-05T09:55:19.713Z,17.31
2018-10-05T09:57:49.471Z,17.80
2018-10-05T10:00:27.987Z,17.86
2018-10-05T10:03:06.340Z,17.79
2018-10-05T10:05:35.396Z,17.47
2018-10-05T10:08:06.052Z,17.80
2018-10-05T10:10:35.067Z,18.09
2018-10-05T10:13:03.767Z,18.07
2018-10-05T10:15:33.750Z,18.38
2018-10-05T10:18:04.484Z,18.74
2018-10-05T10:20:35.611Z,19.14
2018-10-05T10:23:05.352Z,19.38
2018-10-05T10:25:35.711Z,19.40
2018-10-05T10:28:07.214Z,19.69
2018-10-05T10:30:37.145Z,19.06
2018-10-05T10:33:06.728Z,19.55
2018-10-05T10:35:35.733Z,19.58
2018-10-05T10:38:05.810Z,19.34
2018-10-05T10:40:34.999Z,17.35
2018-10-05T10:43:04.154Z,19.63
2018-10-05T10:45:33.894Z,19.85
2018-10-05T10:48:04.204Z,19.83
2018-10-05T10:50:33.575Z,19.77
2018-10-05T10:53:04.452Z,19.68
2018-10-05T10:55:35.268Z,20.05
2018-10-05T10:58:06.243Z,20.24
2018-10-05T11:00:35.910Z,20.46
2018-10-05T11:03:05.043Z,20.65
2018-10-05T11:05:41.502Z,20.75
2018-10-05T11:08:11.045Z,20.90
2018-10-05T11:10:42.013Z,21.06
2018-10-05T11:13:11.986Z,20.69
2018-10-05T11:15:45.561Z,21.16
2018-10-05T11:18:15.281Z,21.00
2018-10-05T11:20:44.589Z,21.12
2018-10-05T11:23:14.742Z,21.29
2018-10-05T11:25:45.993Z,21.30
2018-10-05T11:28:15.083Z,21.33
2018-10-05T11:30:46.016Z,21.66
2018-10-05T11:33:15.932Z,22.05
2018-10-05T11:35:46.249Z,22.22
2018-10-05T11:38:15.824Z,22.58
2018-10-05T11:40:46.526Z,22.52
2018-10-05T11:43:15.397Z,22.79
2018-10-05T11:45:45.619Z,23.38
2018-10-05T11:48:15.549Z,23.57
2018-10-05T11:50:46.104Z,23.74
2018-10-05T11:53:15.809Z,23.71
2018-10-05T11:55:45.830Z,23.63
2018-10-05T11:58:15.782Z,23.92
2018-10-05T12:00:44.393Z,23.36
2018-10-05T12:03:14.423Z,23.04
2018-10-05T12:05:43.691Z,23.50
2018-10-05T12:08:14.950Z,23.60
2018-10-05T12:10:45.642Z,23.73
2018-10-05T12:13:16.137Z,24.20
2018-10-05T12:15:46.908Z,24.11
2018-10-05T12:18:16.769Z,24.11
2018-10-05T12:20:45.335Z,24.04
2018-10-05T12:23:18.378Z,23.78
2018-10-05T12:25:47.877Z,23.69
2018-10-05T12:28:17.009Z,23.99
2018-10-05T12:30:47.335Z,24.11
2018-10-05T12:33:16.711Z,24.45
2018-10-05T12:35:47.000Z,24.25
2018-10-05T12:38:16.760Z,24.53
2018-10-05T12:40:47.942Z,24.46
2018-10-05T12:43:21.465Z,24.75
2018-10-05T12:45:51.094Z,24.58
2018-10-05T12:48:20.017Z,22.81
2018-10-05T12:50:50.779Z,24.46
2018-10-05T12:53:20.680Z,24.36
2018-10-05T12:55:50.440Z,24.25
2018-10-05T12:58:19.484Z,24.63
2018-10-05T13:00:51.308Z,24.41
2018-10-05T13:03:21.596Z,25.11
2018-10-05T13:05:51.391Z,25.13
2018-10-05T13:08:24.900Z,24.61
2018-10-05T13:10:54.785Z,24.45
2018-10-05T13:13:25.668Z,24.98
2018-10-05T13:15:54.654Z,25.35
2018-10-05T13:18:24.276Z,25.91
2018-10-05T13:20:52.802Z,25.91
2018-10-05T13:23:22.348Z,25.44
2018-10-05T13:25:51.820Z,25.08
2018-10-05T13:28:21.072Z,25.67
2018-10-05T13:30:50.823Z,25.82
2018-10-05T13:33:22.013Z,25.52
2018-10-05T13:35:51.981Z,25.43
2018-10-05T13:38:22.204Z,25.55
2018-10-05T13:40:51.847Z,25.75
2018-10-05T13:43:22.233Z,25.56
2018-10-05T13:45:51.559Z,25.50
2018-10-05T13:48:22.659Z,25.86
2018-10-05T13:50:54.139Z,25.63
2018-10-05T13:53:22.628Z,25.82
2018-10-05T13:55:54.418Z,25.50
2018-10-05T13:58:22.992Z,25.28
2018-10-05T14:00:52.307Z,25.52
2018-10-05T14:03:21.834Z,25.59
2018-10-05T14:05:52.865Z,25.24
2018-10-05T14:08:22.889Z,25.25
2018-10-05T14:10:51.558Z,25.57
2018-10-05T14:13:20.326Z,25.68
2018-10-05T14:15:49.769Z,26.23
2018-10-05T14:18:19.366Z,25.93
2018-10-05T14:20:49.432Z,26.13
2018-10-05T14:23:18.436Z,26.63
2018-10-05T14:25:47.910Z,27.01
2018-10-05T14:28:17.018Z,26.48
2018-10-05T14:30:46.604Z,26.14
2018-10-05T14:33:15.162Z,25.83
2018-10-05T14:35:44.819Z,25.52
2018-10-05T14:38:14.942Z,25.86
2018-10-05T14:40:45.808Z,25.86
2018-10-05T14:43:15.885Z,26.05
2018-10-05T14:45:46.353Z,25.98
2018-10-05T14:48:17.008Z,26.00
2018-10-05T14:50:47.968Z,25.76
2018-10-05T14:53:18.660Z,25.88
2018-10-05T14:55:48.225Z,25.64
2018-10-05T14:58:17.249Z,25.53
2018-10-05T15:00:46.868Z,25.40
2018-10-05T15:03:18.886Z,25.68
2018-10-05T15:05:48.679Z,25.66
2018-10-05T15:08:17.780Z,25.51
2018-10-05T15:10:46.667Z,25.82
2018-10-05T15:13:16.307Z,25.51
2018-10-05T15:15:44.856Z,25.34
2018-10-05T15:18:15.301Z,25.01
2018-10-05T15:20:45.319Z,24.97
2018-10-05T15:23:14.820Z,24.90
2018-10-05T15:25:44.995Z,24.77
2018-10-05T15:28:14.075Z,24.64
2018-10-05T15:30:43.949Z,24.47
2018-10-05T15:33:13.247Z,24.30
2018-10-05T15:35:43.195Z,24.46
2018-10-05T15:38:12.372Z,24.25
2018-10-05T15:40:42.386Z,24.57
2018-10-05T15:43:12.931Z,24.64
2018-10-05T15:45:44.480Z,24.28
2018-10-05T15:48:13.651Z,24.49
2018-10-05T15:50:44.398Z,24.35
2018-10-05T15:53:14.733Z,24.12
2018-10-05T15:55:43.706Z,24.22
2018-10-05T15:58:13.449Z,23.99
2018-10-05T16:00:42.476Z,24.05
2018-10-05T16:03:20.404Z,24.12
2018-10-05T16:05:51.953Z,23.91
2018-10-05T16:08:21.384Z,23.82
2018-10-05T16:10:51.035Z,21.49
2018-10-05T16:13:20.415Z,23.61
2018-10-05T16:15:50.015Z,23.44
2018-10-05T16:18:20.221Z,23.26
2018-10-05T16:20:50.804Z,23.15
2018-10-05T16:23:21.244Z,23.17
2018-10-05T16:25:50.199Z,23.04
2018-10-05T16:28:20.900Z,22.94
2018-10-05T16:30:50.952Z,23.00
2018-10-05T16:33:19.756Z,22.89
2018-10-05T16:35:49.796Z,22.94
2018-10-05T16:38:19.640Z,22.88
2018-10-05T16:40:48.802Z,22.87
2018-10-05T16:43:18.493Z,22.84
2018-10-05T16:45:48.103Z,22.76
2018-10-05T16:48:17.418Z,22.68
2018-10-05T16:50:46.938Z,22.33
2018-10-05T16:53:20.248Z,22.01
2018-10-05T16:55:50.316Z,22.21
2018-10-05T16:58:19.187Z,21.93
2018-10-05T17:00:48.292Z,21.59
2018-10-05T17:03:18.671Z,21.23
2018-10-05T17:05:49.952Z,21.05
2018-10-05T17:08:19.909Z,21.44
2018-10-05T17:10:49.584Z,21.41
2018-10-05T17:13:18.728Z,21.33
2018-10-05T17:15:49.029Z,21.14
2018-10-05T17:18:18.617Z,21.28
2018-10-05T17:20:47.265Z,21.06
2018-10-05T17:23:21.729Z,20.72
2018-10-05T17:25:51.738Z,20.71
2018-10-05T17:28:22.937Z,20.64
2018-10-05T17:30:52.996Z,20.58
2018-10-05T17:33:23.027Z,20.75
2018-10-05T17:35:54.075Z,20.81
2018-10-05T17:38:24.120Z,20.77
2018-10-05T17:40:54.300Z,20.39
2018-10-05T17:43:22.834Z,19.95
2018-10-05T17:45:51.764Z,19.90
2018-10-05T17:48:22.251Z,20.21
2018-10-05T17:50:52.089Z,20.33
2018-10-05T17:53:21.541Z,20.05
2018-10-05T17:55:50.313Z,20.33
2018-10-05T17:58:19.563Z,20.39
2018-10-05T18:00:50.111Z,20.36
2018-10-05T18:03:20.360Z,20.34
2018-10-05T18:05:49.711Z,20.24
2018-10-05T18:08:19.344Z,19.61
2018-10-05T18:10:47.887Z,19.59
2018-10-05T18:13:19.118Z,19.59
2018-10-05T18:15:49.027Z,19.87
2018-10-05T18:18:22.328Z,19.86
2018-10-05T18:20:52.166Z,19.90
2018-10-05T18:23:23.171Z,19.71
2018-10-05T18:25:52.577Z,19.87
2018-10-05T18:28:23.193Z,19.34
2018-10-05T18:30:52.591Z,18.69
2018-10-05T18:33:21.587Z,18.12
2018-10-05T18:35:52.679Z,17.89
2018-10-05T18:38:23.471Z,18.06
2018-10-05T18:40:52.955Z,17.85
2018-10-05T18:43:22.581Z,17.88
2018-10-05T18:45:51.459Z,17.80
2018-10-05T18:48:20.884Z,17.52
2018-10-05T18:50:51.396Z,17.72
2018-10-05T18:53:20.401Z,17.50
2018-10-05T18:55:49.268Z,17.36
2018-10-05T18:58:18.799Z,17.30
2018-10-05T19:00:48.328Z,17.32
2018-10-05T19:03:18.173Z,17.24
2018-10-05T19:05:47.762Z,17.38
2018-10-05T19:08:16.339Z,17.26
2018-10-05T19:10:45.467Z,17.21
2018-10-05T19:13:21.952Z,17.29
2018-10-05T19:15:54.452Z,17.16
2018-10-05T19:18:25.107Z,17.10
2018-10-05T19:20:56.627Z,17.15
2018-10-05T19:23:27.585Z,17.23
2018-10-05T19:25:58.518Z,17.25
2018-10-05T19:28:27.030Z,17.15
2018-10-05T19:30:57.610Z,17.07
2018-10-05T19:33:26.508Z,16.89
2018-10-05T19:35:55.885Z,16.89
2018-10-05T19:38:26.293Z,16.73
2018-10-05T19:40:55.640Z,16.64
2018-10-05T19:43:25.717Z,16.65
2018-10-05T19:45:54.974Z,16.61
2018-10-05T19:48:24.401Z,16.42
2018-10-05T19:50:53.527Z,16.19
2018-10-05T19:53:23.478Z,16.15
2018-10-05T19:55:54.590Z,16.02
2018-10-05T19:58:25.060Z,15.92
2018-10-05T20:00:54.564Z,16.03
2018-10-05T20:03:23.624Z,15.85
2018-10-05T20:05:52.520Z,15.92
2018-10-05T20:08:21.830Z,4.74
2018-10-05T20:10:52.108Z,15.96
2018-10-05T20:13:20.851Z,16.00
2018-10-05T20:15:52.572Z,15.79
2018-10-05T20:18:24.169Z,15.73
2018-10-05T20:20:54.224Z,15.72
2018-10-05T20:23:24.871Z,15.74
2018-10-05T20:25:53.908Z,15.58
2018-10-05T20:28:23.277Z,15.59
2018-10-05T20:30:53.378Z,15.63
2018-10-05T20:33:25.222Z,15.43
2018-10-05T20:35:54.747Z,15.47
2018-10-05T20:38:23.705Z,15.59
2018-10-05T20:40:52.818Z,15.40
2018-10-05T20:43:23.126Z,15.26
2018-10-05T20:45:52.235Z,15.52
2018-10-05T20:48:22.316Z,15.17
2018-10-05T20:50:51.783Z,15.25
2018-10-05T20:53:21.841Z,15.35
2018-10-05T20:55:51.911Z,15.30
2018-10-05T20:58:24.092Z,15.27
2018-10-05T21:00:53.297Z,15.22
2018-10-05T21:03:23.661Z,15.27
2018-10-05T21:05:54.302Z,15.05
2018-10-05T21:08:23.737Z,15.03
2018-10-05T21:10:52.505Z,15.00
2018-10-05T21:13:24.752Z,14.95
2018-10-05T21:15:54.656Z,15.08
2018-10-05T21:18:23.983Z,15.06
2018-10-05T21:20:54.456Z,15.04
2018-10-05T21:23:23.823Z,15.16
2018-10-05T21:25:53.112Z,15.05
2018-10-05T21:28:22.644Z,14.98
2018-10-05T21:30:52.365Z,14.80
2018-10-05T21:33:21.761Z,14.90
2018-10-05T21:35:52.053Z,14.75
2018-10-05T21:38:22.511Z,14.72
2018-10-05T21:40:51.780Z,14.56
2018-10-05T21:43:20.615Z,14.64
2018-10-05T21:45:50.100Z,14.46
2018-10-05T21:48:19.471Z,14.60
2018-10-05T21:50:49.483Z,14.67
2018-10-05T21:53:18.633Z,14.47
2018-10-05T21:55:47.868Z,14.41
2018-10-05T21:58:16.895Z,14.28
2018-10-05T22:00:45.436Z,14.25
2018-10-05T22:03:14.132Z,14.20
2018-10-05T22:05:44.969Z,14.21
2018-10-05T22:08:14.789Z,14.06
2018-10-05T22:10:44.768Z,14.00
2018-10-05T22:13:13.771Z,13.99
2018-10-05T22:15:46.162Z,13.94
2018-10-05T22:18:16.861Z,14.17
2018-10-05T22:20:46.667Z,13.91
2018-10-05T22:23:15.780Z,14.11
2018-10-05T22:25:45.956Z,13.95
2018-10-05T22:28:18.039Z,13.88
2018-10-05T22:30:46.576Z,13.93
2018-10-05T22:33:15.733Z,14.01
2018-10-05T22:35:44.252Z,13.88
2018-10-05T22:38:14.448Z,13.73
2018-10-05T22:40:44.560Z,13.80
2018-10-05T22:43:13.469Z,13.86
2018-10-05T22:45:42.080Z,13.95
2018-10-05T22:48:10.613Z,13.98
2018-10-05T22:50:39.880Z,13.81
2018-10-05T22:53:10.496Z,13.87
2018-10-05T22:55:39.339Z,13.84
2018-10-05T22:58:08.430Z,13.88
2018-10-05T23:00:38.028Z,13.77
2018-10-05T23:03:07.162Z,14.01
2018-10-05T23:05:36.037Z,13.84
2018-10-05T23:08:06.732Z,13.99
2018-10-05T23:10:35.700Z,14.14
2018-10-05T23:13:04.735Z,13.98
2018-10-05T23:15:34.286Z,14.06
2018-10-05T23:18:03.923Z,11.41
2018-10-05T23:20:33.780Z,14.04
2018-10-05T23:23:04.620Z,14.12
2018-10-05T23:25:33.963Z,14.11
2018-10-05T23:28:04.181Z,14.21
2018-10-05T23:30:33.513Z,14.16
2018-10-05T23:33:03.540Z,14.31
2018-10-05T23:35:33.794Z,14.23
2018-10-05T23:38:03.353Z,14.26
2018-10-05T23:40:32.108Z,14.03
2018-10-05T23:43:02.076Z,14.14
2018-10-05T23:45:31.548Z,14.04
2018-10-05T23:48:01.091Z,13.75
2018-10-05T23:50:30.702Z,13.70
2018-10-05T23:52:59.753Z,13.76
2018-10-05T23:55:29.176Z,13.80
2018-10-05T23:57:59.026Z,13.89
